Details From KLDJ - LINDEN
To KLDJ - LINDEN
Flight Number -
Tags None
Created
Modified
Stats Distance 50 nm / 93 km
Max Altitude 23 ft / 7 m
Waypoints 8
Social Downloads 0
Likes 0
Share VATSIM

Download

Looking for another format? Having issues loading an existing format? Contact us
Advertisement - Login to hide

Notes

None

Route

KLDJ NJ83 NJ77 KJRB 4NY3 KTEB 7NJ8 KLDJ

ID Type Via Altitude Latitude Longitude Leg Dist Tot Dist Heading (true) Name
O KLDJ APT - 23 ft / 7 m 40.61745˚ -74.24459˚ - 0 nm - LINDEN
NJ83 APT - 8 ft / 2 m 40.60010˚ -74.19958˚ 2 nm 2 nm 117° / 117° -
NJ77 APT - 10 ft / 3 m 40.65010˚ -74.08292˚ 6 nm 8 nm 61° / 61° -
KJRB APT - 7 ft / 2 m 40.70121˚ -74.00903˚ 4 nm 12 nm 48° / 48° -
4NY3 APT - 20 ft / 6 m 40.76927˚ -73.85014˚ 8 nm 21 nm 60° / 61° -
KTEB APT - 9 ft / 3 m 40.85025˚ -74.06094˚ 10 nm 32 nm 297° / 297° Teterboro
7NJ8 APT - 23 ft / 7 m 40.61288˚ -74.26820˚ 17 nm 49 nm 214° / 213° -
O KLDJ APT - 23 ft / 7 m 40.61745˚ -74.24459˚ 1 nm 50 nm 76° / 76° LINDEN

Altitude Profile

Advertisement - Login to hide

KLDJ

Details ICAO KLDJ (LDJ)
Name LINDEN
Region United States
Timezone America/New_York (UTC-5.0)
Stats Elevation 23 ft / 7 m (AMSL)
Location 40.617449° -74.244595°
Runways 1
Magnetic Variation 12.754° W

METAR

KLDJ 171735Z AUTO 00000KT 10SM CLR 03/M05 A3027 RMK AO2 T00261053

Decode

TAF

Not found

Departure Runways

ID Width Length Bearing (true) Bearing (mag) Surface Threshold Offset Overrun Length
09 98 ft / 30 m 4,131 ft / 1,259 m 75.60° 88.35° Asphalt 459 ft / 140 m 200 ft / 61 m
27 98 ft / 30 m 4,131 ft / 1,259 m 255.61° 268.36° Asphalt 545 ft / 166 m 200 ft / 61 m

KLDJ

Details ICAO KLDJ (LDJ)
Name LINDEN
Region United States
Timezone America/New_York (UTC-5.0)
Stats Elevation 23 ft / 7 m (AMSL)
Location 40.617449° -74.244595°
Runways 1
Magnetic Variation 12.754° W

METAR

KLDJ 171735Z AUTO 00000KT 10SM CLR 03/M05 A3027 RMK AO2 T00261053

Decode

TAF

Not found

Destination Runways

ID Width Length Bearing (true) Bearing (mag) Surface Threshold Offset Overrun Length
09 98 ft / 30 m 4,131 ft / 1,259 m 75.60° 88.35° Asphalt 459 ft / 140 m 200 ft / 61 m
27 98 ft / 30 m 4,131 ft / 1,259 m 255.61° 268.36° Asphalt 545 ft / 166 m 200 ft / 61 m